Time;durP1;ratioP1;P1;durP2;ratioP2;P2;SDS_P1;SDS_P2;PMS_P1;PMS_P2;Temp;Humidity;BMP_temperature;BMP_pressure;BME280_temperature;BME280_humidity;BME280_pressure;Samples;Min_cycle;Max_cycle;Signal;HPM_P1;HPM_P2
2022/08/09 00:02:09;;;;;;;1.85;1.75;;;;;;;;;;5118832;28;20226;-63
2022/08/09 00:04:37;;;;;;;1.70;1.60;;;;;;;;;;5122910;27;20194;-63
2022/08/09 00:07:05;;;;;;;1.90;1.67;;;;;;;;;;5139140;27;20521;-63
2022/08/09 00:09:33;;;;;;;1.85;1.67;;;;;;;;;;5138999;27;20597;-63
2022/08/09 00:12:00;;;;;;;1.92;1.80;;;;;;;;;;5138858;27;20266;-63
2022/08/09 00:14:28;;;;;;;1.65;1.55;;;;;;;;;;5139205;27;20202;-63
2022/08/09 00:16:55;;;;;;;1.83;1.73;;;;;;;;;;5139300;27;20209;-63
2022/08/09 00:19:23;;;;;;;1.80;1.70;;;;;;;;;;5139321;27;20571;-63
2022/08/09 00:21:52;;;;;;;1.70;1.60;;;;;;;;;;5138762;27;20267;-63
2022/08/09 00:24:19;;;;;;;1.83;1.70;;;;;;;;;;5138704;27;20261;-63
2022/08/09 00:26:47;;;;;;;2.08;1.67;;;;;;;;;;5138911;27;20210;-63
2022/08/09 00:29:14;;;;;;;1.80;1.70;;;;;;;;;;5138804;27;20202;-63
2022/08/09 00:31:42;;;;;;;1.73;1.63;;;;;;;;;;5137915;27;20202;-63
2022/08/09 00:34:09;;;;;;;1.70;1.60;;;;;;;;;;5118344;28;20203;-63
2022/08/09 00:36:37;;;;;;;1.88;1.77;;;;;;;;;;5118015;28;20211;-63
2022/08/09 00:39:06;;;;;;;1.98;1.75;;;;;;;;;;5118138;28;20203;-63
2022/08/09 00:41:33;;;;;;;1.80;1.70;;;;;;;;;;5118268;28;20214;-63
2022/08/09 00:44:00;;;;;;;1.50;1.40;;;;;;;;;;5117861;28;20537;-63
2022/08/09 00:46:28;;;;;;;1.90;1.45;;;;;;;;;;5118387;28;20203;-63
2022/08/09 00:48:55;;;;;;;1.83;1.73;;;;;;;;;;5117892;28;20504;-63
2022/08/09 00:51:23;;;;;;;1.80;1.70;;;;;;;;;;5118290;28;20540;-63
2022/08/09 00:53:50;;;;;;;1.73;1.63;;;;;;;;;;5118068;28;20522;-63
2022/08/09 00:56:19;;;;;;;1.67;1.58;;;;;;;;;;5117909;28;20252;-63
2022/08/09 00:58:49;;;;;;;1.67;1.58;;;;;;;;;;5117495;28;20202;-63
2022/08/09 01:01:20;;;;;;;2.40;1.60;;;;;;;;;;5136348;27;20199;-63
2022/08/09 01:03:51;;;;;;;1.70;1.60;;;;;;;;;;5137444;27;20271;-63
2022/08/09 01:06:21;;;;;;;1.75;1.65;;;;;;;;;;5138150;27;20210;-63
2022/08/09 01:08:55;;;;;;;1.80;1.70;;;;;;;;;;5136534;27;20485;-63
2022/08/09 01:11:29;;;;;;;1.90;1.80;;;;;;;;;;5138368;27;20607;-63
2022/08/09 01:13:58;;;;;;;1.60;1.50;;;;;;;;;;5138266;27;20208;-63
2022/08/09 01:16:32;;;;;;;1.90;1.73;;;;;;;;;;5137922;27;20202;-63
2022/08/09 01:19:02;;;;;;;2.05;1.75;;;;;;;;;;5137960;27;20293;-62
2022/08/09 01:21:37;;;;;;;1.80;1.70;;;;;;;;;;5137977;27;20202;-63
2022/08/09 01:24:06;;;;;;;2.00;1.80;;;;;;;;;;5137875;27;20234;-63
2022/08/09 01:26:45;;;;;;;1.70;1.60;;;;;;;;;;5134208;27;20651;-63
2022/08/09 01:29:14;;;;;;;1.60;1.50;;;;;;;;;;5117421;28;20202;-63
2022/08/09 01:31:42;;;;;;;2.30;2.10;;;;;;;;;;5117535;28;20207;-63
2022/08/09 01:34:11;;;;;;;1.90;1.80;;;;;;;;;;5117061;28;20207;-63
2022/08/09 01:36:39;;;;;;;2.35;1.58;;;;;;;;;;5117177;28;20199;-63
2022/08/09 01:39:06;;;;;;;1.75;1.65;;;;;;;;;;5117851;28;20202;-63
2022/08/09 01:41:35;;;;;;;1.65;1.55;;;;;;;;;;5117274;28;20203;-63
2022/08/09 01:44:06;;;;;;;1.75;1.65;;;;;;;;;;5116796;28;20329;-63
2022/08/09 01:46:35;;;;;;;1.90;1.80;;;;;;;;;;5117208;28;20628;-63
2022/08/09 01:49:05;;;;;;;1.80;1.70;;;;;;;;;;5116827;28;20293;-63
2022/08/09 01:51:33;;;;;;;2.17;2.03;;;;;;;;;;5116824;28;20203;-63
2022/08/09 01:54:02;;;;;;;1.70;1.60;;;;;;;;;;5117946;28;20263;-63
2022/08/09 01:56:30;;;;;;;1.77;1.67;;;;;;;;;;5136124;28;20206;-63
2022/08/09 01:58:58;;;;;;;1.70;1.60;;;;;;;;;;5137432;28;20202;-63
2022/08/09 02:01:28;;;;;;;1.80;1.70;;;;;;;;;;5137263;28;20526;-63
2022/08/09 02:03:56;;;;;;;1.95;1.85;;;;;;;;;;5137296;28;20222;-63
2022/08/09 02:09:05;;;;;;;1.70;1.60;;;;;;;;;;5136330;28;20608;-63
2022/08/09 02:11:33;;;;;;;1.88;1.77;;;;;;;;;;5137293;28;20202;-63
2022/08/09 02:14:01;;;;;;;1.80;1.70;;;;;;;;;;5137018;27;20225;-63
2022/08/09 02:16:32;;;;;;;1.90;1.80;;;;;;;;;;5141251;27;20202;-62
2022/08/09 02:19:00;;;;;;;1.95;1.85;;;;;;;;;;5141360;27;20281;-63
2022/08/09 02:21:28;;;;;;;1.65;1.55;;;;;;;;;;5139170;27;20209;-63
2022/08/09 02:23:56;;;;;;;1.80;1.70;;;;;;;;;;5120326;28;20234;-63
2022/08/09 02:26:25;;;;;;;1.90;1.80;;;;;;;;;;5120865;28;20203;-62
2022/08/09 02:28:53;;;;;;;1.90;1.80;;;;;;;;;;5120530;28;20203;-62
2022/08/09 02:31:22;;;;;;;1.73;1.63;;;;;;;;;;5120616;28;20210;-63
2022/08/09 02:33:53;;;;;;;1.90;1.80;;;;;;;;;;5120574;28;20207;-63
2022/08/09 02:36:22;;;;;;;1.70;1.60;;;;;;;;;;5120307;28;20202;-63
2022/08/09 02:38:51;;;;;;;1.85;1.75;;;;;;;;;;5119697;28;20202;-62
2022/08/09 02:41:23;;;;;;;1.70;1.60;;;;;;;;;;5120456;28;20203;-62
2022/08/09 02:43:51;;;;;;;1.80;1.70;;;;;;;;;;5120218;28;20603;-63
2022/08/09 02:46:19;;;;;;;1.73;1.63;;;;;;;;;;5120237;28;20274;-63
2022/08/09 02:48:47;;;;;;;1.67;1.58;;;;;;;;;;5120513;28;20556;-63
2022/08/09 02:51:18;;;;;;;1.95;1.75;;;;;;;;;;5119730;28;20527;-63
2022/08/09 02:53:48;;;;;;;1.80;1.70;;;;;;;;;;5120480;28;20279;-62
2022/08/09 02:56:17;;;;;;;2.00;1.90;;;;;;;;;;5120682;28;20254;-63
2022/08/09 02:58:45;;;;;;;1.77;1.67;;;;;;;;;;5119848;28;20211;-62
2022/08/09 03:01:13;;;;;;;1.98;1.83;;;;;;;;;;5120025;28;20202;-63
2022/08/09 03:03:42;;;;;;;1.80;1.70;;;;;;;;;;5119977;28;20515;-62
2022/08/09 03:06:13;;;;;;;1.67;1.58;;;;;;;;;;5119855;28;20210;-62
2022/08/09 03:08:44;;;;;;;1.98;1.88;;;;;;;;;;5120009;28;20210;-62
2022/08/09 03:11:12;;;;;;;1.98;1.88;;;;;;;;;;5119815;28;20199;-62
2022/08/09 03:13:40;;;;;;;2.00;1.90;;;;;;;;;;5119849;28;20279;-63
2022/08/09 03:16:08;;;;;;;1.77;1.67;;;;;;;;;;5120748;28;20210;-63
2022/08/09 03:18:36;;;;;;;1.85;1.75;;;;;;;;;;5119786;28;20260;-62
2022/08/09 03:21:03;;;;;;;2.20;2.00;;;;;;;;;;5120330;28;20203;-62
2022/08/09 03:23:31;;;;;;;2.20;1.70;;;;;;;;;;5120046;28;20223;-62
2022/08/09 03:26:00;;;;;;;1.88;1.77;;;;;;;;;;5139466;27;20222;-62
2022/08/09 03:28:27;;;;;;;2.55;1.90;;;;;;;;;;5141312;27;20202;-63
2022/08/09 03:30:55;;;;;;;1.80;1.70;;;;;;;;;;5140853;27;20537;-62
2022/08/09 03:33:23;;;;;;;1.88;1.77;;;;;;;;;;5140789;27;20263;-62
2022/08/09 03:35:51;;;;;;;1.83;1.73;;;;;;;;;;5140549;27;20212;-63
2022/08/09 03:38:18;;;;;;;2.20;1.98;;;;;;;;;;5140310;27;20210;-62
2022/08/09 03:40:46;;;;;;;2.55;1.95;;;;;;;;;;5140522;27;20267;-63
2022/08/09 03:43:15;;;;;;;1.80;1.70;;;;;;;;;;5140509;27;20236;-63
2022/08/09 03:45:42;;;;;;;2.28;1.83;;;;;;;;;;5125729;27;20206;-62
2022/08/09 03:48:09;;;;;;;2.05;1.90;;;;;;;;;;5119752;28;20263;-62
2022/08/09 03:50:37;;;;;;;1.80;1.70;;;;;;;;;;5119527;28;20478;-62
2022/08/09 03:53:06;;;;;;;1.85;1.70;;;;;;;;;;5119263;28;20199;-62
2022/08/09 03:55:33;;;;;;;1.90;1.80;;;;;;;;;;5119112;28;20268;-62
2022/08/09 03:58:01;;;;;;;1.73;1.63;;;;;;;;;;5118944;28;20542;-63
2022/08/09 04:00:29;;;;;;;1.90;1.80;;;;;;;;;;5119384;28;20203;-63
2022/08/09 04:02:57;;;;;;;1.80;1.70;;;;;;;;;;5118866;28;20210;-63
2022/08/09 04:05:25;;;;;;;2.05;1.90;;;;;;;;;;5118336;28;20199;-62
2022/08/09 04:07:52;;;;;;;1.80;1.70;;;;;;;;;;5119318;28;20567;-63
2022/08/09 04:10:21;;;;;;;1.88;1.77;;;;;;;;;;5119539;28;20237;-63
2022/08/09 04:12:49;;;;;;;2.30;2.10;;;;;;;;;;5129060;27;20263;-62
2022/08/09 04:15:18;;;;;;;2.08;1.80;;;;;;;;;;5139324;27;20202;-62
2022/08/09 04:17:46;;;;;;;2.10;2.00;;;;;;;;;;5139395;27;20195;-62
2022/08/09 04:20:14;;;;;;;2.35;2.08;;;;;;;;;;5139079;27;20209;-63
2022/08/09 04:22:43;;;;;;;2.00;1.90;;;;;;;;;;5139155;27;20213;-62
2022/08/09 04:25:10;;;;;;;1.75;1.65;;;;;;;;;;5138992;27;20225;-63
2022/08/09 04:27:40;;;;;;;2.30;1.98;;;;;;;;;;5138464;27;20237;-62
2022/08/09 04:30:10;;;;;;;2.10;1.50;;;;;;;;;;5138577;27;20289;-62
2022/08/09 04:32:37;;;;;;;1.80;1.70;;;;;;;;;;5138544;27;20606;-62
2022/08/09 04:35:06;;;;;;;1.83;1.73;;;;;;;;;;5138838;27;20248;-63
2022/08/09 04:37:34;;;;;;;1.88;1.70;;;;;;;;;;5138351;27;20202;-63
2022/08/09 04:40:01;;;;;;;2.00;1.90;;;;;;;;;;5129340;27;20202;-63
2022/08/09 04:42:29;;;;;;;1.90;1.80;;;;;;;;;;5117631;28;20264;-63
2022/08/09 04:44:57;;;;;;;2.10;2.00;;;;;;;;;;5117554;28;20717;-62
2022/08/09 04:47:25;;;;;;;2.22;1.77;;;;;;;;;;5117516;28;20264;-63
2022/08/09 04:49:52;;;;;;;1.70;1.60;;;;;;;;;;5117565;28;20699;-63
2022/08/09 04:52:22;;;;;;;2.10;2.00;;;;;;;;;;5117403;28;20602;-63
2022/08/09 04:54:50;;;;;;;2.38;1.90;;;;;;;;;;5117183;28;20207;-62
2022/08/09 04:57:18;;;;;;;1.80;1.70;;;;;;;;;;5117021;28;20290;-62
2022/08/09 04:59:45;;;;;;;1.92;1.83;;;;;;;;;;5118103;28;20203;-62
2022/08/09 05:02:12;;;;;;;1.88;1.77;;;;;;;;;;5117157;28;20331;-62
2022/08/09 05:04:40;;;;;;;2.00;1.88;;;;;;;;;;5116341;28;20223;-62
2022/08/09 05:07:07;;;;;;;1.88;1.77;;;;;;;;;;5122435;27;20194;-62
2022/08/09 05:09:36;;;;;;;1.98;1.88;;;;;;;;;;5137219;27;20210;-62
2022/08/09 05:12:03;;;;;;;1.77;1.67;;;;;;;;;;5137168;27;20549;-62
2022/08/09 05:14:31;;;;;;;2.00;1.90;;;;;;;;;;5137878;27;20263;-62
2022/08/09 05:16:58;;;;;;;1.85;1.75;;;;;;;;;;5137628;27;20210;-62
2022/08/09 05:19:28;;;;;;;1.92;1.83;;;;;;;;;;5137804;27;20601;-62
2022/08/09 05:21:55;;;;;;;2.00;1.90;;;;;;;;;;5137293;27;20574;-62
2022/08/09 05:24:23;;;;;;;1.90;1.80;;;;;;;;;;5136868;27;20298;-62
2022/08/09 05:26:52;;;;;;;1.85;1.75;;;;;;;;;;5136919;27;20202;-62
2022/08/09 05:29:19;;;;;;;1.92;1.83;;;;;;;;;;5136729;27;20224;-62
2022/08/09 05:31:47;;;;;;;2.10;2.00;;;;;;;;;;5124630;27;20207;-62
2022/08/09 05:34:14;;;;;;;2.00;1.90;;;;;;;;;;5116788;28;20203;-62
2022/08/09 05:36:42;;;;;;;2.10;2.00;;;;;;;;;;5116209;28;20202;-62
2022/08/09 05:39:10;;;;;;;1.92;1.83;;;;;;;;;;5116184;28;20659;-62
2022/08/09 05:41:37;;;;;;;2.17;2.08;;;;;;;;;;5116190;28;20234;-62
2022/08/09 05:44:06;;;;;;;1.85;1.75;;;;;;;;;;5118279;28;20286;-62
2022/08/09 05:46:34;;;;;;;1.92;1.83;;;;;;;;;;5136860;27;20210;-63
2022/08/09 05:49:01;;;;;;;1.77;1.67;;;;;;;;;;5136525;27;20552;-63
2022/08/09 05:51:28;;;;;;;1.70;1.60;;;;;;;;;;5136674;28;20203;-63
2022/08/09 05:53:56;;;;;;;1.83;1.73;;;;;;;;;;5137349;28;20248;-63
2022/08/09 05:56:23;;;;;;;2.00;1.90;;;;;;;;;;5136790;28;20202;-63
2022/08/09 05:58:55;;;;;;;1.70;1.60;;;;;;;;;;5136450;28;20206;-62
2022/08/09 06:01:24;;;;;;;1.83;1.73;;;;;;;;;;5137146;28;20313;-63
2022/08/09 06:03:51;;;;;;;2.10;2.00;;;;;;;;;;5136598;28;20313;-63
2022/08/09 06:06:19;;;;;;;2.08;1.98;;;;;;;;;;5136462;28;20202;-63
2022/08/09 06:08:47;;;;;;;2.13;1.92;;;;;;;;;;5136342;28;20202;-63
2022/08/09 06:11:19;;;;;;;2.10;1.85;;;;;;;;;;5136878;28;20685;-63
2022/08/09 06:13:49;;;;;;;1.98;1.77;;;;;;;;;;5136724;28;20248;-63
2022/08/09 06:16:17;;;;;;;3.65;2.03;;;;;;;;;;5135692;28;20212;-63
2022/08/09 06:18:45;;;;;;;2.25;2.03;;;;;;;;;;5136457;28;20212;-63
2022/08/09 06:21:13;;;;;;;2.17;1.98;;;;;;;;;;5136169;28;20217;-63
2022/08/09 06:23:40;;;;;;;2.25;2.05;;;;;;;;;;5135933;27;20263;-63
2022/08/09 06:26:08;;;;;;;1.95;1.85;;;;;;;;;;5128165;28;20203;-63
2022/08/09 06:28:35;;;;;;;2.70;1.95;;;;;;;;;;5115546;28;20211;-63
2022/08/09 06:31:02;;;;;;;2.03;1.90;;;;;;;;;;5115772;28;20268;-63
2022/08/09 06:33:30;;;;;;;2.45;2.10;;;;;;;;;;5115405;28;20268;-63
2022/08/09 06:35:59;;;;;;;3.97;2.30;;;;;;;;;;5114955;28;20269;-64
2022/08/09 06:38:27;;;;;;;2.40;2.17;;;;;;;;;;5114397;28;20203;-63
2022/08/09 06:40:54;;;;;;;2.20;2.00;;;;;;;;;;5115112;28;20264;-64
2022/08/09 06:43:21;;;;;;;2.75;2.25;;;;;;;;;;5115184;28;20211;-64
2022/08/09 06:45:48;;;;;;;3.00;2.08;;;;;;;;;;5114842;28;20254;-64
2022/08/09 06:48:16;;;;;;;2.22;1.98;;;;;;;;;;5115639;28;20252;-63
2022/08/09 06:50:44;;;;;;;2.72;1.88;;;;;;;;;;5115586;28;20211;-65
2022/08/09 06:53:13;;;;;;;2.63;2.17;;;;;;;;;;5119042;28;20195;-63
2022/08/09 06:55:40;;;;;;;2.05;1.92;;;;;;;;;;5135347;28;20198;-63
2022/08/09 06:58:07;;;;;;;2.70;2.03;;;;;;;;;;5131193;28;20203;-63
2022/08/09 07:00:36;;;;;;;4.70;2.40;;;;;;;;;;5134266;27;20203;-63
2022/08/09 07:03:03;;;;;;;2.38;2.13;;;;;;;;;;5137737;27;20206;-63
2022/08/09 07:05:30;;;;;;;3.75;2.00;;;;;;;;;;5138653;27;20719;-64
2022/08/09 07:07:58;;;;;;;3.00;2.30;;;;;;;;;;5138677;27;20232;-64
2022/08/09 07:10:26;;;;;;;3.05;2.05;;;;;;;;;;5138868;27;20203;-64
2022/08/09 07:12:54;;;;;;;2.22;1.98;;;;;;;;;;5138667;27;20194;-63
2022/08/09 07:15:21;;;;;;;2.63;2.20;;;;;;;;;;5138337;27;20194;-63
2022/08/09 07:17:48;;;;;;;3.47;1.88;;;;;;;;;;5138132;27;20232;-63
2022/08/09 07:20:19;;;;;;;2.40;2.20;;;;;;;;;;5136392;27;20210;-63
2022/08/09 07:22:47;;;;;;;2.55;2.05;;;;;;;;;;5117480;28;20192;-63
2022/08/09 07:25:14;;;;;;;2.22;2.13;;;;;;;;;;5117663;28;20250;-63
2022/08/09 07:27:43;;;;;;;2.20;1.98;;;;;;;;;;5117144;28;20263;-63
2022/08/09 07:30:13;;;;;;;2.05;1.90;;;;;;;;;;5099760;28;20294;-63
2022/08/09 07:32:40;;;;;;;2.22;2.03;;;;;;;;;;5097560;28;20575;-63
2022/08/09 07:35:08;;;;;;;2.05;1.90;;;;;;;;;;5097002;28;20257;-63
2022/08/09 07:37:36;;;;;;;2.13;1.92;;;;;;;;;;5096848;28;20264;-63
2022/08/09 07:40:04;;;;;;;2.08;1.98;;;;;;;;;;5096359;28;20211;-63
2022/08/09 07:42:31;;;;;;;1.90;1.80;;;;;;;;;;5096911;28;20199;-63
2022/08/09 07:45:00;;;;;;;2.10;1.90;;;;;;;;;;5096812;28;20289;-63
2022/08/09 07:47:27;;;;;;;2.25;2.05;;;;;;;;;;5097551;28;20575;-63
2022/08/09 07:49:55;;;;;;;2.33;2.00;;;;;;;;;;5115833;28;20215;-63
2022/08/09 07:52:22;;;;;;;2.03;1.83;;;;;;;;;;5116744;28;20248;-63
2022/08/09 07:54:49;;;;;;;2.20;2.00;;;;;;;;;;5116791;28;20195;-63
2022/08/09 07:57:17;;;;;;;2.00;1.90;;;;;;;;;;5116217;28;20210;-63
2022/08/09 07:59:44;;;;;;;2.58;2.00;;;;;;;;;;5116975;28;20202;-63
2022/08/09 08:02:13;;;;;;;2.58;2.17;;;;;;;;;;5116349;28;20480;-63
2022/08/09 08:04:40;;;;;;;2.20;1.90;;;;;;;;;;5116983;28;20223;-64
2022/08/09 08:07:08;;;;;;;1.83;1.73;;;;;;;;;;5117611;28;20215;-63
2022/08/09 08:09:35;;;;;;;2.20;2.03;;;;;;;;;;5116876;28;20194;-63
2022/08/09 08:12:02;;;;;;;2.85;1.88;;;;;;;;;;5117277;28;20271;-63
2022/08/09 08:14:30;;;;;;;3.55;2.00;;;;;;;;;;5116611;28;20491;-63
2022/08/09 08:16:57;;;;;;;2.22;2.03;;;;;;;;;;5115723;28;20195;-63
2022/08/09 08:19:26;;;;;;;2.20;2.00;;;;;;;;;;5116766;28;20762;-63
2022/08/09 08:21:53;;;;;;;2.00;1.80;;;;;;;;;;5116361;28;20427;-63
2022/08/09 08:24:20;;;;;;;2.95;2.05;;;;;;;;;;5115713;28;20285;-63
2022/08/09 08:26:48;;;;;;;1.90;1.80;;;;;;;;;;5115894;28;20268;-63
2022/08/09 08:29:18;;;;;;;2.10;1.90;;;;;;;;;;5116141;28;20211;-63
2022/08/09 08:31:45;;;;;;;2.33;1.75;;;;;;;;;;5116236;28;20226;-63
2022/08/09 08:34:13;;;;;;;2.30;2.10;;;;;;;;;;5116717;28;20199;-63
2022/08/09 08:36:42;;;;;;;2.10;1.90;;;;;;;;;;5116488;28;20203;-63
2022/08/09 08:39:10;;;;;;;2.28;1.88;;;;;;;;;;5115869;28;20199;-63
2022/08/09 08:41:37;;;;;;;2.47;1.70;;;;;;;;;;5115489;28;20201;-63
2022/08/09 08:44:05;;;;;;;1.75;1.65;;;;;;;;;;5115573;28;20203;-63
2022/08/09 08:46:39;;;;;;;1.90;1.70;;;;;;;;;;5115519;28;20230;-63
2022/08/09 08:49:07;;;;;;;2.05;1.95;;;;;;;;;;5115305;28;20202;-63
2022/08/09 08:51:35;;;;;;;2.38;1.80;;;;;;;;;;5115671;28;20210;-63
2022/08/09 08:54:06;;;;;;;2.63;2.22;;;;;;;;;;5115363;28;20206;-63
2022/08/09 08:56:37;;;;;;;2.58;1.95;;;;;;;;;;5115058;28;20577;-63
2022/08/09 08:59:06;;;;;;;2.13;1.90;;;;;;;;;;5114643;28;20268;-63
2022/08/09 09:01:34;;;;;;;2.03;1.85;;;;;;;;;;5114960;28;20209;-63
2022/08/09 09:04:02;;;;;;;1.98;1.88;;;;;;;;;;5114300;28;20811;-63
2022/08/09 09:06:31;;;;;;;2.15;1.85;;;;;;;;;;5113970;28;20284;-63
2022/08/09 09:08:59;;;;;;;1.95;1.85;;;;;;;;;;5114073;28;20198;-63
2022/08/09 09:11:28;;;;;;;2.30;2.20;;;;;;;;;;5113491;28;20199;-63
2022/08/09 09:13:58;;;;;;;2.38;2.00;;;;;;;;;;5113489;28;20230;-63
2022/08/09 09:16:26;;;;;;;1.90;1.80;;;;;;;;;;5113530;28;20256;-63
2022/08/09 09:18:54;;;;;;;2.00;1.90;;;;;;;;;;5114439;28;20203;-63
2022/08/09 09:21:22;;;;;;;2.47;2.10;;;;;;;;;;5115070;28;20203;-63
2022/08/09 09:23:50;;;;;;;2.08;1.92;;;;;;;;;;5113342;28;20256;-63
2022/08/09 09:26:17;;;;;;;1.90;1.80;;;;;;;;;;5114557;28;20326;-63
2022/08/09 09:28:47;;;;;;;2.10;2.00;;;;;;;;;;5114376;28;20209;-63
2022/08/09 09:31:14;;;;;;;1.90;1.80;;;;;;;;;;5113795;28;20242;-64
2022/08/09 09:33:42;;;;;;;1.77;1.67;;;;;;;;;;5114465;28;20203;-64
2022/08/09 09:36:10;;;;;;;2.05;1.90;;;;;;;;;;5114206;28;20199;-63
2022/08/09 09:38:43;;;;;;;1.90;1.80;;;;;;;;;;5113562;28;20289;-63
2022/08/09 09:41:14;;;;;;;2.28;2.05;;;;;;;;;;5114244;28;20287;-63
2022/08/09 09:43:41;;;;;;;1.92;1.83;;;;;;;;;;5113812;28;20275;-63
2022/08/09 09:46:10;;;;;;;2.13;1.83;;;;;;;;;;5114229;28;20230;-64
2022/08/09 09:48:38;;;;;;;1.92;1.83;;;;;;;;;;5113926;28;20203;-64
2022/08/09 09:51:05;;;;;;;2.03;1.75;;;;;;;;;;5113646;28;20199;-64
2022/08/09 09:53:32;;;;;;;2.35;1.73;;;;;;;;;;5113947;28;20210;-63
2022/08/09 09:56:00;;;;;;;3.20;1.83;;;;;;;;;;5113943;28;20203;-63
2022/08/09 09:58:44;;;;;;;2.20;2.00;;;;;;;;;;5113723;28;20210;-63
2022/08/09 10:01:19;;;;;;;1.88;1.77;;;;;;;;;;5113503;28;20271;-63
2022/08/09 10:03:48;;;;;;;2.33;1.88;;;;;;;;;;5114231;28;20616;-63
2022/08/09 10:06:15;;;;;;;2.17;1.65;;;;;;;;;;5113183;28;20214;-63
2022/08/09 10:08:43;;;;;;;1.95;1.77;;;;;;;;;;5113895;28;20214;-63
2022/08/09 10:11:17;;;;;;;1.95;1.85;;;;;;;;;;5113881;28;20582;-63
2022/08/09 10:13:46;;;;;;;1.90;1.80;;;;;;;;;;5114359;28;20249;-63
2022/08/09 10:16:13;;;;;;;2.08;1.88;;;;;;;;;;5114558;28;20191;-63
2022/08/09 10:18:50;;;;;;;1.65;1.55;;;;;;;;;;5113374;28;20216;-63
2022/08/09 10:21:17;;;;;;;2.00;1.90;;;;;;;;;;5113350;28;20210;-63
2022/08/09 10:23:45;;;;;;;2.10;1.90;;;;;;;;;;5113069;27;20195;-63
2022/08/09 10:26:13;;;;;;;2.92;1.98;;;;;;;;;;5113360;28;20830;-63
2022/08/09 10:28:42;;;;;;;2.05;1.85;;;;;;;;;;5112048;28;20263;-63
2022/08/09 10:31:10;;;;;;;1.90;1.80;;;;;;;;;;5112019;28;20689;-63
2022/08/09 10:33:38;;;;;;;2.03;1.63;;;;;;;;;;5111676;28;20209;-63
2022/08/09 10:36:08;;;;;;;1.75;1.63;;;;;;;;;;5113681;28;20199;-63
2022/08/09 10:38:35;;;;;;;2.20;2.00;;;;;;;;;;5116318;28;20203;-63
2022/08/09 10:41:03;;;;;;;2.00;1.90;;;;;;;;;;5117113;28;20249;-63
2022/08/09 10:43:31;;;;;;;2.00;1.90;;;;;;;;;;5117337;28;20211;-63
2022/08/09 10:46:02;;;;;;;2.28;2.08;;;;;;;;;;5116960;28;20226;-63
2022/08/09 10:48:32;;;;;;;1.80;1.70;;;;;;;;;;5116649;28;20199;-63
2022/08/09 10:51:08;;;;;;;1.95;1.85;;;;;;;;;;5115886;28;20205;-63
2022/08/09 10:53:50;;;;;;;2.03;1.92;;;;;;;;;;5117152;28;20207;-63
2022/08/09 10:56:21;;;;;;;2.30;2.10;;;;;;;;;;5116957;28;20285;-63
2022/08/09 10:58:48;;;;;;;1.60;1.50;;;;;;;;;;5117373;28;20198;-63
2022/08/09 11:01:45;;;;;;;1.90;1.80;;;;;;;;;;5117374;28;20195;-63
2022/08/09 11:04:14;;;;;;;1.88;1.77;;;;;;;;;;5033844;28;20216;-63
2022/08/09 11:06:41;;;;;;;1.85;1.75;;;;;;;;;;5098535;28;20219;-63
2022/08/09 11:09:09;;;;;;;2.60;1.90;;;;;;;;;;5116184;28;20268;-63
2022/08/09 11:11:52;;;;;;;1.85;1.75;;;;;;;;;;5116817;28;20203;-63
2022/08/09 11:14:30;;;;;;;2.10;2.00;;;;;;;;;;5099736;28;20203;-63
2022/08/09 11:16:58;;;;;;;2.00;1.90;;;;;;;;;;5115417;28;20202;-63
2022/08/09 11:19:44;;;;;;;2.00;1.90;;;;;;;;;;5115859;28;20202;-63
2022/08/09 11:22:11;;;;;;;2.47;1.88;;;;;;;;;;5115585;28;20199;-63
2022/08/09 11:24:56;;;;;;;2.13;1.98;;;;;;;;;;5116550;27;20235;-63
2022/08/09 11:27:30;;;;;;;2.20;2.00;;;;;;;;;;5103206;28;20230;-63
2022/08/09 11:29:59;;;;;;;2.13;2.00;;;;;;;;;;5115876;28;20205;-63
2022/08/09 11:32:42;;;;;;;2.00;1.90;;;;;;;;;;5115280;28;20207;-64
2022/08/09 11:35:13;;;;;;;1.98;1.88;;;;;;;;;;5116059;28;20491;-63
2022/08/09 11:37:41;;;;;;;2.20;2.00;;;;;;;;;;5115689;28;20546;-63
2022/08/09 11:40:09;;;;;;;2.20;2.10;;;;;;;;;;5116081;28;20268;-63
2022/08/09 11:42:40;;;;;;;1.90;1.80;;;;;;;;;;5115235;28;20199;-63
2022/08/09 11:45:20;;;;;;;2.00;1.90;;;;;;;;;;5116138;28;20218;-63
2022/08/09 11:47:48;;;;;;;1.98;1.88;;;;;;;;;;5115767;28;20199;-63
2022/08/09 11:50:15;;;;;;;2.13;1.92;;;;;;;;;;5114900;28;20210;-63
2022/08/09 11:53:01;;;;;;;2.00;1.90;;;;;;;;;;5115804;28;20622;-63
2022/08/09 11:55:36;;;;;;;2.00;1.90;;;;;;;;;;5114791;28;20242;-64
2022/08/09 11:58:04;;;;;;;2.00;1.90;;;;;;;;;;5116032;27;20215;-63
2022/08/09 12:00:34;;;;;;;2.10;2.00;;;;;;;;;;5118103;27;20210;-63
2022/08/09 12:03:02;;;;;;;1.92;1.83;;;;;;;;;;5115603;28;20241;-63
2022/08/09 12:05:34;;;;;;;1.92;1.70;;;;;;;;;;5115191;28;20745;-63
2022/08/09 12:08:01;;;;;;;2.00;1.90;;;;;;;;;;5115714;28;20237;-63
2022/08/09 12:10:29;;;;;;;1.98;1.88;;;;;;;;;;5114376;28;20210;-63
2022/08/09 12:12:56;;;;;;;2.10;2.00;;;;;;;;;;5115432;28;20622;-63
2022/08/09 12:15:25;;;;;;;2.00;1.90;;;;;;;;;;5116222;28;20264;-63
2022/08/09 12:17:54;;;;;;;2.05;1.90;;;;;;;;;;5115480;28;20248;-63
2022/08/09 12:20:23;;;;;;;1.80;1.70;;;;;;;;;;5115505;28;20210;-63
2022/08/09 12:22:52;;;;;;;1.98;1.88;;;;;;;;;;5115234;28;20203;-64
2022/08/09 12:25:20;;;;;;;1.85;1.75;;;;;;;;;;5114926;28;20335;-63
2022/08/09 12:27:47;;;;;;;2.10;1.90;;;;;;;;;;5114501;28;20230;-63
2022/08/09 12:30:15;;;;;;;1.98;1.88;;;;;;;;;;5114661;28;20666;-63
2022/08/09 12:32:42;;;;;;;2.00;1.90;;;;;;;;;;5114764;28;20214;-63
2022/08/09 12:35:12;;;;;;;2.17;2.08;;;;;;;;;;5114743;28;20196;-63
2022/08/09 12:37:39;;;;;;;2.10;1.90;;;;;;;;;;5115049;28;20252;-63
2022/08/09 12:40:08;;;;;;;2.03;1.83;;;;;;;;;;5113955;28;20232;-63
2022/08/09 12:42:35;;;;;;;1.95;1.85;;;;;;;;;;5114413;28;20264;-63
2022/08/09 12:45:04;;;;;;;2.30;1.90;;;;;;;;;;5114391;28;20268;-64
2022/08/09 12:47:31;;;;;;;2.17;2.08;;;;;;;;;;5114763;28;20611;-63
2022/08/09 12:50:17;;;;;;;2.00;1.90;;;;;;;;;;5114672;28;20637;-63
2022/08/09 12:52:47;;;;;;;2.00;1.90;;;;;;;;;;5111953;28;20199;-63
2022/08/09 12:55:24;;;;;;;2.35;2.15;;;;;;;;;;5114145;28;20211;-63
2022/08/09 12:57:52;;;;;;;2.13;1.80;;;;;;;;;;5112997;28;20255;-63
2022/08/09 13:00:21;;;;;;;2.38;2.00;;;;;;;;;;5113281;28;20278;-63
2022/08/09 13:02:49;;;;;;;1.83;1.73;;;;;;;;;;5105027;28;20302;-63
2022/08/09 13:05:17;;;;;;;1.65;1.55;;;;;;;;;;5093035;28;20207;-63
2022/08/09 13:08:05;;;;;;;2.00;1.90;;;;;;;;;;5092999;28;20288;-63
2022/08/09 13:10:33;;;;;;;1.75;1.65;;;;;;;;;;5093623;28;20753;-63
2022/08/09 13:13:01;;;;;;;1.92;1.83;;;;;;;;;;5092604;28;20574;-63
2022/08/09 13:15:28;;;;;;;2.10;1.90;;;;;;;;;;5092421;28;20204;-63
2022/08/09 13:18:02;;;;;;;2.08;1.90;;;;;;;;;;5097167;28;20202;-63
2022/08/09 13:20:33;;;;;;;1.70;1.60;;;;;;;;;;5113155;28;20206;-63
2022/08/09 13:23:02;;;;;;;1.90;1.80;;;;;;;;;;5114117;28;20286;-63
2022/08/09 13:25:39;;;;;;;1.70;1.60;;;;;;;;;;5127398;27;20226;-63
2022/08/09 13:28:09;;;;;;;1.83;1.50;;;;;;;;;;5134030;27;20963;-63
2022/08/09 13:30:38;;;;;;;1.75;1.65;;;;;;;;;;5133812;27;20717;-63
2022/08/09 13:33:05;;;;;;;2.00;1.90;;;;;;;;;;5132988;27;20199;-63
2022/08/09 13:35:33;;;;;;;1.77;1.67;;;;;;;;;;5133763;27;20202;-63
2022/08/09 13:38:01;;;;;;;1.88;1.77;;;;;;;;;;5132904;27;20198;-64
2022/08/09 13:40:29;;;;;;;1.90;1.80;;;;;;;;;;5132765;27;20715;-63
2022/08/09 13:42:56;;;;;;;1.98;1.75;;;;;;;;;;5132383;27;20240;-64
2022/08/09 13:45:24;;;;;;;1.95;1.85;;;;;;;;;;5133093;27;20190;-63
2022/08/09 13:47:51;;;;;;;2.65;1.83;;;;;;;;;;5132187;27;20218;-63
2022/08/09 13:50:19;;;;;;;1.95;1.85;;;;;;;;;;5132256;28;20198;-63
2022/08/09 13:52:47;;;;;;;1.77;1.67;;;;;;;;;;5133037;28;20243;-63
2022/08/09 13:55:16;;;;;;;1.63;1.52;;;;;;;;;;5133338;28;20258;-63
2022/08/09 13:57:46;;;;;;;1.65;1.55;;;;;;;;;;5131760;28;20255;-63
2022/08/09 14:00:14;;;;;;;2.38;2.15;;;;;;;;;;5132623;28;20202;-63
2022/08/09 14:02:43;;;;;;;2.10;1.98;;;;;;;;;;5132318;28;20198;-63
2022/08/09 14:05:10;;;;;;;1.90;1.80;;;;;;;;;;5133189;28;20202;-63
2022/08/09 14:07:38;;;;;;;1.65;1.55;;;;;;;;;;5133060;28;20222;-63
2022/08/09 14:10:06;;;;;;;1.83;1.70;;;;;;;;;;5133515;27;20672;-63
2022/08/09 14:12:35;;;;;;;2.28;2.08;;;;;;;;;;5135313;27;20194;-63
2022/08/09 14:15:03;;;;;;;1.90;1.70;;;;;;;;;;5137266;27;20574;-64
2022/08/09 14:17:31;;;;;;;1.63;1.52;;;;;;;;;;5137098;27;20194;-63
2022/08/09 14:19:58;;;;;;;1.77;1.67;;;;;;;;;;5136710;27;20209;-63
2022/08/09 14:22:26;;;;;;;1.70;1.60;;;;;;;;;;5137080;27;20206;-63
2022/08/09 14:24:53;;;;;;;1.75;1.65;;;;;;;;;;5136879;27;20302;-63
2022/08/09 14:27:20;;;;;;;1.70;1.60;;;;;;;;;;5137352;27;20218;-63
2022/08/09 14:29:49;;;;;;;2.05;1.95;;;;;;;;;;5136765;27;20202;-63
2022/08/09 14:32:16;;;;;;;1.60;1.50;;;;;;;;;;5137092;27;20282;-63
2022/08/09 14:34:43;;;;;;;2.20;2.10;;;;;;;;;;5137963;27;20674;-63
2022/08/09 14:37:11;;;;;;;1.90;1.80;;;;;;;;;;5136368;27;20201;-63
2022/08/09 14:39:39;;;;;;;2.22;1.90;;;;;;;;;;5136240;27;20206;-63
2022/08/09 14:42:06;;;;;;;1.63;1.52;;;;;;;;;;5136971;27;20206;-63
2022/08/09 14:44:34;;;;;;;1.67;1.58;;;;;;;;;;5136241;27;20283;-63
2022/08/09 14:47:02;;;;;;;2.22;1.92;;;;;;;;;;5135710;27;20222;-63
2022/08/09 14:49:30;;;;;;;1.92;1.83;;;;;;;;;;5137311;27;20198;-63
2022/08/09 14:51:57;;;;;;;1.80;1.70;;;;;;;;;;5136561;27;20209;-63
2022/08/09 14:54:25;;;;;;;1.73;1.63;;;;;;;;;;5136152;27;20202;-63
2022/08/09 14:56:52;;;;;;;1.95;1.80;;;;;;;;;;5136089;27;20198;-63